Time;durP1;ratioP1;P1;durP2;ratioP2;P2;SDS_P1;SDS_P2;PMS_P1;PMS_P2;Temp;Humidity;BMP_temperature;BMP_pressure;BME280_temperature;BME280_humidity;BME280_pressure;Samples;Min_cycle;Max_cycle;Signal;HPM_P1;HPM_P2
2022/04/09 00:00:37;;;;;;;26.98;6.05;;;15.30;97.30;;;;;;5034135;28;20077;-71
2022/04/09 00:03:03;;;;;;;23.58;5.47;;;15.20;97.50;;;;;;5034149;28;20053;-71
2022/04/09 00:05:29;;;;;;;23.48;5.63;;;15.20;97.80;;;;;;5034072;28;20021;-72
2022/04/09 00:07:55;;;;;;;25.73;5.50;;;15.20;97.80;;;;;;5034112;28;20052;-73
2022/04/09 00:10:20;;;;;;;23.02;6.03;;;15.20;98.00;;;;;;5033984;28;20030;-70
2022/04/09 00:12:47;;;;;;;26.80;6.35;;;15.20;98.00;;;;;;5033997;28;20402;-71
2022/04/09 00:15:13;;;;;;;27.10;6.13;;;15.20;98.30;;;;;;5033747;28;20053;-71
2022/04/09 00:17:41;;;;;;;25.73;6.25;;;15.10;98.30;;;;;;5033951;28;20026;-78
2022/04/09 00:20:08;;;;;;;18.80;5.55;;;15.20;98.50;;;;;;5034417;28;20037;-75
2022/04/09 00:22:34;;;;;;;20.42;5.53;;;15.20;98.70;;;;;;5034213;28;20025;-75
2022/04/09 00:25:01;;;;;;;21.40;5.68;;;15.10;98.80;;;;;;5034321;28;20029;-75
2022/04/09 00:27:26;;;;;;;32.95;6.45;;;15.10;99.10;;;;;;5034273;28;20033;-73
2022/04/09 00:29:55;;;;;;;21.17;5.75;;;15.10;99.10;;;;;;5033721;28;20091;-72
2022/04/09 00:32:21;;;;;;;22.40;6.65;;;15.10;99.30;;;;;;5033494;28;20024;-74
2022/04/09 00:34:47;;;;;;;25.67;6.40;;;15.10;99.50;;;;;;5032233;28;20033;-75
2022/04/09 00:37:12;;;;;;;25.17;6.78;;;15.10;99.50;;;;;;5033470;28;20052;-75
2022/04/09 00:39:39;;;;;;;24.65;6.63;;;15.10;99.70;;;;;;5033408;28;20030;-77
2022/04/09 00:42:05;;;;;;;24.00;7.28;;;15.00;99.80;;;;;;5033430;28;20029;-77
2022/04/09 00:44:31;;;;;;;26.85;7.50;;;15.00;99.90;;;;;;5033433;28;20053;-74
2022/04/09 00:46:57;;;;;;;25.60;6.65;;;15.00;99.90;;;;;;5033529;28;20029;-74
2022/04/09 00:49:24;;;;;;;25.48;6.13;;;15.00;99.90;;;;;;5033440;28;20025;-76
2022/04/09 00:51:51;;;;;;;28.25;6.85;;;14.90;99.90;;;;;;5032995;28;20089;-77
2022/04/09 00:54:21;;;;;;;26.13;6.80;;;14.90;99.90;;;;;;5033268;28;20363;-76
2022/04/09 00:56:48;;;;;;;27.27;6.32;;;14.90;99.90;;;;;;5033306;28;20021;-76
2022/04/09 00:59:16;;;;;;;20.70;6.05;;;14.90;99.90;;;;;;5033363;28;20029;-72
2022/04/09 01:01:42;;;;;;;26.77;6.75;;;14.90;99.90;;;;;;5033048;28;20029;-72
2022/04/09 01:04:10;;;;;;;21.80;5.70;;;14.80;99.90;;;;;;5032953;28;20037;-75
2022/04/09 01:06:36;;;;;;;28.50;6.35;;;14.80;99.90;;;;;;5032007;28;20128;-78
2022/04/09 01:09:04;;;;;;;22.65;5.95;;;14.80;99.90;;;;;;5033196;28;20459;-73
2022/04/09 01:11:31;;;;;;;25.65;5.95;;;14.70;99.90;;;;;;5031730;28;20038;-72
2022/04/09 01:13:57;;;;;;;25.05;6.22;;;14.70;99.90;;;;;;5033011;28;20021;-78
2022/04/09 01:16:24;;;;;;;27.33;6.72;;;14.80;99.90;;;;;;5033071;28;20033;-75
2022/04/09 01:18:50;;;;;;;25.00;5.63;;;14.80;99.90;;;;;;5032802;28;20475;-77
2022/04/09 01:21:17;;;;;;;20.25;5.63;;;14.80;99.90;;;;;;5033043;28;20040;-76
2022/04/09 01:23:42;;;;;;;27.08;6.28;;;14.80;99.90;;;;;;5032935;28;20025;-78
2022/04/09 01:26:08;;;;;;;16.95;5.40;;;14.70;99.90;;;;;;5032894;28;20030;-77
2022/04/09 01:28:35;;;;;;;23.50;5.95;;;14.70;99.90;;;;;;5032989;28;20048;-76
2022/04/09 01:31:00;;;;;;;26.70;6.53;;;14.70;99.90;;;;;;5037015;28;20075;-79
2022/04/09 01:33:26;;;;;;;26.10;5.78;;;14.70;99.90;;;;;;5036897;28;20502;-78
2022/04/09 01:35:52;;;;;;;25.35;6.32;;;14.70;99.90;;;;;;5036922;28;20057;-76
2022/04/09 01:38:18;;;;;;;25.67;5.97;;;14.70;99.90;;;;;;5036791;28;20525;-76
2022/04/09 01:40:44;;;;;;;24.98;6.22;;;14.70;99.90;;;;;;5036681;28;20112;-77
2022/04/09 01:43:09;;;;;;;28.30;5.75;;;14.70;99.90;;;;;;5036752;28;20025;-78
2022/04/09 01:45:36;;;;;;;28.02;6.50;;;14.70;99.90;;;;;;5036680;28;20017;-77
2022/04/09 01:48:02;;;;;;;24.30;5.88;;;14.60;99.90;;;;;;5036725;28;20105;-76
2022/04/09 01:50:29;;;;;;;26.52;5.82;;;14.70;99.90;;;;;;5036761;28;20049;-75
2022/04/09 01:52:56;;;;;;;25.90;5.38;;;14.70;99.90;;;;;;5036288;28;20053;-76
2022/04/09 01:55:22;;;;;;;22.02;5.57;;;14.60;99.90;;;;;;5036412;28;20022;-77
2022/04/09 01:57:51;;;;;;;32.33;6.78;;;14.60;99.90;;;;;;5036522;28;20033;-74
2022/04/09 02:00:17;;;;;;;27.30;6.90;;;14.60;99.90;;;;;;5036565;28;20041;-74
2022/04/09 02:02:44;;;;;;;24.00;5.30;;;14.60;99.90;;;;;;5036640;28;20402;-77
2022/04/09 02:05:12;;;;;;;18.95;5.15;;;14.60;99.90;;;;;;5036523;28;20036;-77
2022/04/09 02:07:39;;;;;;;31.00;6.70;;;14.60;99.90;;;;;;5036256;28;20026;-74
2022/04/09 02:10:05;;;;;;;25.13;5.18;;;14.60;99.90;;;;;;5036285;28;20032;-78
2022/04/09 02:12:35;;;;;;;26.58;5.40;;;14.60;99.90;;;;;;5036171;28;20124;-75
2022/04/09 02:15:06;;;;;;;21.67;5.07;;;14.60;99.90;;;;;;5034773;28;20108;-76
2022/04/09 02:17:31;;;;;;;24.45;5.28;;;14.50;99.90;;;;;;5036122;28;20108;-78
2022/04/09 02:19:58;;;;;;;23.15;5.85;;;14.50;99.90;;;;;;5035978;28;20180;-77
2022/04/09 02:22:24;;;;;;;21.00;5.70;;;14.50;99.90;;;;;;5035961;28;20014;-76
2022/04/09 02:24:50;;;;;;;24.60;5.30;;;14.50;99.90;;;;;;5036036;28;20368;-76
2022/04/09 02:27:16;;;;;;;29.10;6.45;;;14.50;99.90;;;;;;5034541;28;20017;-77
2022/04/09 02:29:42;;;;;;;27.15;5.35;;;14.50;99.90;;;;;;5035956;28;20025;-77
2022/04/09 02:32:08;;;;;;;24.77;5.50;;;14.50;99.90;;;;;;5034520;28;20024;-77
2022/04/09 02:34:33;;;;;;;22.80;5.90;;;14.50;99.90;;;;;;5035867;28;20034;-77
2022/04/09 02:36:59;;;;;;;23.80;5.85;;;14.50;99.90;;;;;;5034413;28;20025;-76
2022/04/09 02:39:24;;;;;;;29.05;5.63;;;14.40;99.90;;;;;;5035548;28;20072;-77
2022/04/09 02:41:50;;;;;;;27.13;5.80;;;14.50;99.90;;;;;;5034362;28;20053;-76
2022/04/09 02:44:17;;;;;;;33.00;6.28;;;14.40;99.90;;;;;;5035507;28;20226;-76
2022/04/09 02:46:44;;;;;;;24.58;5.68;;;14.40;99.90;;;;;;5035673;28;20547;-77
2022/04/09 02:49:10;;;;;;;27.83;6.53;;;14.50;99.90;;;;;;5035582;28;20096;-75
2022/04/09 02:51:35;;;;;;;26.73;5.65;;;14.40;99.90;;;;;;5035368;28;20510;-76
2022/04/09 02:54:01;;;;;;;28.30;5.63;;;14.50;99.90;;;;;;5035471;28;20490;-77
2022/04/09 02:56:27;;;;;;;26.02;6.03;;;14.50;99.90;;;;;;5035721;28;20478;-76
2022/04/09 02:58:52;;;;;;;23.15;5.40;;;14.40;99.90;;;;;;5035463;28;20101;-76
2022/04/09 03:01:18;;;;;;;24.73;5.93;;;14.40;99.90;;;;;;5035458;28;20036;-77
2022/04/09 03:03:44;;;;;;;24.42;6.18;;;14.40;99.90;;;;;;5035385;28;20083;-76
2022/04/09 03:06:10;;;;;;;19.67;5.63;;;14.40;99.90;;;;;;5035409;28;20037;-76
2022/04/09 03:08:36;;;;;;;19.67;5.15;;;14.40;99.90;;;;;;5035304;28;20351;-76
2022/04/09 03:11:02;;;;;;;25.25;5.43;;;14.40;99.90;;;;;;5035222;28;20109;-75
2022/04/09 03:13:27;;;;;;;25.08;5.13;;;14.40;99.90;;;;;;5035068;28;20490;-76
2022/04/09 03:15:53;;;;;;;25.98;6.03;;;14.40;99.90;;;;;;5035165;28;20057;-76
2022/04/09 03:18:19;;;;;;;22.60;5.30;;;14.40;99.90;;;;;;5033826;28;20112;-78
2022/04/09 03:20:45;;;;;;;26.33;5.55;;;14.50;99.90;;;;;;5034933;28;20049;-76
2022/04/09 03:23:11;;;;;;;24.40;5.45;;;14.50;99.90;;;;;;5035129;28;20072;-78
2022/04/09 03:25:37;;;;;;;23.75;5.55;;;14.50;99.90;;;;;;5033799;28;20128;-78
2022/04/09 03:28:03;;;;;;;20.13;5.03;;;14.50;99.90;;;;;;5035091;28;20096;-77
2022/04/09 03:30:29;;;;;;;25.77;6.18;;;14.50;99.90;;;;;;5034975;28;20105;-76
2022/04/09 03:32:55;;;;;;;24.85;6.25;;;14.50;99.90;;;;;;5033749;28;20109;-72
2022/04/09 03:35:21;;;;;;;19.90;6.05;;;14.50;99.90;;;;;;5033612;28;20029;-72
2022/04/09 03:37:47;;;;;;;20.30;6.07;;;14.50;99.90;;;;;;5033400;28;20030;-72
2022/04/09 03:40:13;;;;;;;19.45;6.25;;;14.50;99.90;;;;;;5034635;28;20037;-73
2022/04/09 03:42:39;;;;;;;23.65;6.20;;;14.40;99.90;;;;;;5034687;28;20061;-71
2022/04/09 03:45:06;;;;;;;22.08;5.40;;;14.40;99.90;;;;;;5034673;28;20056;-73
2022/04/09 03:47:35;;;;;;;19.52;4.85;;;14.40;99.90;;;;;;5033253;28;20075;-73
2022/04/09 03:50:01;;;;;;;26.63;5.93;;;14.40;99.90;;;;;;5034502;28;20025;-74
2022/04/09 03:52:27;;;;;;;26.42;6.05;;;14.40;99.90;;;;;;5034005;28;20049;-71
2022/04/09 03:54:53;;;;;;;19.63;6.03;;;14.40;99.90;;;;;;5033147;28;20025;-71
2022/04/09 03:57:19;;;;;;;20.65;5.65;;;14.40;99.90;;;;;;5034210;28;20399;-72
2022/04/09 03:59:45;;;;;;;22.08;4.93;;;14.40;99.90;;;;;;5032936;28;20029;-70
2022/04/09 04:02:10;;;;;;;19.20;5.00;;;14.40;99.90;;;;;;5034141;28;20026;-71
2022/04/09 04:04:37;;;;;;;22.77;4.65;;;14.40;99.90;;;;;;5034078;28;20028;-72
2022/04/09 04:07:04;;;;;;;22.98;5.28;;;14.40;99.90;;;;;;5034036;28;20024;-73
2022/04/09 04:09:30;;;;;;;19.55;4.78;;;14.40;99.90;;;;;;5033912;28;20025;-71
2022/04/09 04:11:55;;;;;;;24.10;5.72;;;14.40;99.90;;;;;;5032829;28;20493;-72
2022/04/09 04:14:22;;;;;;;19.85;4.78;;;14.40;99.90;;;;;;5033872;28;20108;-71
2022/04/09 04:16:47;;;;;;;17.60;5.03;;;14.40;99.90;;;;;;5033620;28;20486;-71
2022/04/09 04:19:13;;;;;;;16.20;4.95;;;14.40;99.90;;;;;;5033589;28;20021;-74
2022/04/09 04:21:39;;;;;;;16.73;5.07;;;14.40;99.90;;;;;;5033717;28;20040;-73
2022/04/09 04:24:05;;;;;;;17.27;4.63;;;14.40;99.90;;;;;;5033663;28;20030;-71
2022/04/09 04:26:31;;;;;;;22.83;6.15;;;14.40;99.90;;;;;;5033576;28;20071;-72
2022/04/09 04:28:56;;;;;;;20.75;6.55;;;14.40;99.90;;;;;;5033441;28;20029;-71
2022/04/09 04:31:22;;;;;;;23.67;5.07;;;14.30;99.90;;;;;;5032323;28;20112;-73
2022/04/09 04:33:48;;;;;;;17.90;5.05;;;14.30;99.90;;;;;;5032119;28;20029;-74
2022/04/09 04:36:13;;;;;;;18.95;5.30;;;14.40;99.90;;;;;;5033496;28;20029;-74
2022/04/09 04:38:39;;;;;;;23.85;6.35;;;14.30;99.90;;;;;;5033576;28;20025;-71
2022/04/09 04:41:05;;;;;;;23.45;5.82;;;14.40;99.90;;;;;;5033252;28;20108;-72
2022/04/09 04:43:32;;;;;;;23.17;5.32;;;14.40;99.90;;;;;;5033356;28;20151;-72
2022/04/09 04:45:58;;;;;;;17.10;4.47;;;14.50;99.90;;;;;;5033533;28;20026;-71
2022/04/09 04:48:24;;;;;;;19.42;4.57;;;14.50;99.90;;;;;;5033312;28;20047;-75
2022/04/09 04:50:50;;;;;;;15.00;4.43;;;14.50;99.90;;;;;;5033187;28;20100;-73
2022/04/09 04:53:16;;;;;;;28.70;5.03;;;14.50;99.90;;;;;;5032961;28;20491;-76
2022/04/09 04:55:41;;;;;;;14.02;4.30;;;14.60;99.90;;;;;;5033310;28;20040;-75
2022/04/09 04:58:07;;;;;;;23.67;5.10;;;14.60;99.80;;;;;;5033420;28;20028;-72
2022/04/09 05:00:33;;;;;;;26.17;5.03;;;14.60;99.60;;;;;;5033196;28;20129;-76
2022/04/09 05:02:59;;;;;;;21.67;5.80;;;14.60;99.40;;;;;;5033180;28;20025;-75
2022/04/09 05:05:26;;;;;;;18.55;4.50;;;14.70;99.30;;;;;;5032558;28;20040;-77
2022/04/09 05:07:53;;;;;;;19.73;5.03;;;14.70;99.20;;;;;;5033133;28;20479;-78
2022/04/09 05:10:22;;;;;;;17.63;4.15;;;14.80;99.00;;;;;;5033040;28;20021;-71
2022/04/09 05:12:48;;;;;;;20.48;4.88;;;14.90;98.90;;;;;;5032975;28;20026;-71
2022/04/09 05:15:16;;;;;;;15.65;3.97;;;14.90;98.70;;;;;;5032847;28;20040;-72
2022/04/09 05:17:43;;;;;;;20.45;4.53;;;15.00;98.50;;;;;;5031739;28;20033;-72
2022/04/09 05:20:11;;;;;;;16.60;4.45;;;15.00;98.40;;;;;;5032803;28;20073;-78
2022/04/09 05:22:39;;;;;;;19.15;4.50;;;15.10;98.30;;;;;;5032922;28;20045;-76
2022/04/09 05:25:05;;;;;;;18.33;5.30;;;15.10;98.20;;;;;;5032703;28;20036;-71
2022/04/09 05:27:31;;;;;;;16.58;4.40;;;15.20;98.10;;;;;;5032677;28;20022;-71
2022/04/09 05:29:57;;;;;;;20.45;5.63;;;15.20;98.10;;;;;;5032698;28;20336;-73
2022/04/09 05:32:23;;;;;;;17.20;4.22;;;15.30;98.00;;;;;;5032810;28;20025;-77
2022/04/09 05:34:49;;;;;;;20.60;4.63;;;15.30;97.90;;;;;;5032949;28;20040;-75
2022/04/09 05:37:16;;;;;;;20.92;5.25;;;15.30;97.80;;;;;;5031567;28;20026;-75
2022/04/09 05:39:43;;;;;;;19.38;5.25;;;15.30;97.80;;;;;;5031332;28;20060;-71
2022/04/09 05:42:10;;;;;;;20.33;5.00;;;15.40;97.80;;;;;;5032506;28;20071;-72
2022/04/09 05:44:35;;;;;;;17.60;4.97;;;15.40;97.70;;;;;;5032385;28;20061;-72
2022/04/09 05:47:01;;;;;;;17.08;4.80;;;15.40;97.70;;;;;;5032400;28;20056;-75
2022/04/09 05:49:27;;;;;;;14.55;4.55;;;15.40;97.60;;;;;;5031232;28;20494;-74
2022/04/09 05:51:53;;;;;;;20.30;4.63;;;15.50;97.70;;;;;;5032287;28;20050;-77
2022/04/09 05:54:19;;;;;;;19.50;4.95;;;15.50;97.70;;;;;;5032544;28;20036;-75
2022/04/09 05:56:44;;;;;;;26.08;5.82;;;15.50;97.70;;;;;;5031297;28;20045;-75
2022/04/09 05:59:11;;;;;;;20.63;5.05;;;15.50;97.70;;;;;;5032203;28;20076;-78
2022/04/09 06:01:36;;;;;;;23.48;5.18;;;15.50;97.70;;;;;;5032380;28;20501;-75
2022/04/09 06:04:02;;;;;;;19.80;5.18;;;15.50;97.80;;;;;;5032299;28;20029;-78
2022/04/09 06:06:28;;;;;;;16.73;4.40;;;15.50;97.80;;;;;;5032226;28;20145;-75
2022/04/09 06:08:54;;;;;;;24.02;5.18;;;15.60;97.90;;;;;;5032419;28;20113;-78
2022/04/09 06:11:21;;;;;;;28.75;5.80;;;15.60;97.90;;;;;;5031064;28;20064;-77
2022/04/09 06:13:46;;;;;;;20.77;4.50;;;15.60;97.80;;;;;;5032221;28;20057;-76
2022/04/09 06:16:12;;;;;;;20.15;5.13;;;15.60;97.80;;;;;;5034505;28;20049;-76
2022/04/09 06:18:39;;;;;;;21.05;5.63;;;15.70;97.80;;;;;;5036026;28;20585;-76
2022/04/09 06:21:05;;;;;;;24.45;5.15;;;15.70;97.80;;;;;;5035709;28;20497;-73
2022/04/09 06:23:31;;;;;;;23.63;5.68;;;15.70;97.70;;;;;;5034603;28;20112;-75
2022/04/09 06:25:57;;;;;;;14.57;4.50;;;15.80;97.60;;;;;;5035516;28;20064;-75
2022/04/09 06:28:23;;;;;;;22.50;5.00;;;15.90;97.50;;;;;;5035494;28;20037;-77
2022/04/09 06:30:48;;;;;;;19.20;5.15;;;15.90;97.30;;;;;;5035522;28;20021;-77
2022/04/09 06:33:14;;;;;;;25.90;5.20;;;15.90;97.20;;;;;;5035463;28;20513;-75
2022/04/09 06:35:40;;;;;;;20.70;5.03;;;16.00;97.00;;;;;;5035311;28;20021;-75
2022/04/09 06:38:05;;;;;;;21.10;5.22;;;16.00;96.90;;;;;;5035269;28;20029;-75
2022/04/09 06:40:31;;;;;;;19.17;5.07;;;16.00;96.80;;;;;;5017338;28;20037;-77
2022/04/09 06:42:58;;;;;;;24.63;6.28;;;16.00;96.70;;;;;;5035389;28;20045;-75
2022/04/09 06:45:24;;;;;;;22.90;5.53;;;16.10;96.70;;;;;;5035201;28;20104;-75
2022/04/09 06:47:51;;;;;;;15.75;4.25;;;16.10;96.60;;;;;;5035128;28;20101;-74
2022/04/09 06:50:17;;;;;;;22.23;5.60;;;16.20;96.40;;;;;;5033699;28;20131;-79
2022/04/09 06:52:43;;;;;;;18.23;5.43;;;16.20;96.20;;;;;;5034575;28;20445;-77
2022/04/09 06:55:10;;;;;;;22.88;5.07;;;16.20;96.10;;;;;;5034882;28;20032;-76
2022/04/09 06:57:38;;;;;;;27.92;5.32;;;16.30;96.00;;;;;;5033722;28;20388;-76
2022/04/09 07:00:06;;;;;;;20.23;5.43;;;16.30;95.90;;;;;;5035110;28;20132;-77
2022/04/09 07:02:33;;;;;;;17.90;4.68;;;16.30;95.90;;;;;;5035132;28;20052;-75
2022/04/09 07:04:59;;;;;;;21.90;4.97;;;16.30;95.80;;;;;;5039499;28;20037;-77
2022/04/09 07:07:26;;;;;;;21.65;5.68;;;16.30;95.80;;;;;;5039675;28;20033;-74
2022/04/09 07:09:55;;;;;;;20.33;4.63;;;16.30;95.70;;;;;;5043122;28;20029;-75
2022/04/09 07:12:22;;;;;;;20.33;5.30;;;16.30;95.60;;;;;;5042882;28;20056;-74
2022/04/09 07:14:48;;;;;;;16.98;4.90;;;16.40;95.60;;;;;;5035110;28;20060;-77
2022/04/09 07:17:21;;;;;;;15.75;4.90;;;16.40;95.30;;;;;;5034743;28;20083;-75
2022/04/09 07:19:47;;;;;;;17.48;5.03;;;16.50;95.20;;;;;;5035031;28;20033;-77
2022/04/09 07:22:13;;;;;;;17.63;4.18;;;16.50;95.00;;;;;;5043383;28;20108;-76
2022/04/09 07:24:38;;;;;;;25.75;5.22;;;16.50;95.10;;;;;;5055001;28;20025;-75
2022/04/09 07:27:04;;;;;;;19.95;4.80;;;16.50;95.10;;;;;;5050940;28;20029;-75
2022/04/09 07:29:30;;;;;;;23.95;5.35;;;16.50;95.20;;;;;;5036185;28;20378;-76
2022/04/09 07:31:56;;;;;;;21.50;5.75;;;16.60;95.20;;;;;;5039862;28;20033;-74
2022/04/09 07:34:21;;;;;;;21.95;5.53;;;16.60;95.10;;;;;;5042350;28;20051;-75
2022/04/09 07:36:47;;;;;;;31.20;5.93;;;16.60;95.10;;;;;;5051080;28;20037;-69
2022/04/09 07:39:13;;;;;;;20.08;5.63;;;16.70;95.20;;;;;;5045660;28;20097;-69
2022/04/09 07:41:39;;;;;;;28.58;6.30;;;16.80;95.10;;;;;;5051761;28;20120;-68
2022/04/09 07:44:05;;;;;;;26.13;5.82;;;16.80;95.00;;;;;;5044739;28;20024;-71
2022/04/09 07:46:31;;;;;;;22.90;4.70;;;16.90;94.90;;;;;;5054202;28;20088;-68
2022/04/09 07:48:57;;;;;;;18.58;4.68;;;17.00;94.80;;;;;;5054191;28;20539;-68
2022/04/09 07:51:22;;;;;;;20.45;5.50;;;17.00;94.90;;;;;;5053959;28;20139;-69
2022/04/09 07:53:48;;;;;;;18.58;5.75;;;17.00;94.80;;;;;;5053826;28;20043;-69
2022/04/09 07:56:14;;;;;;;23.48;5.72;;;17.00;94.90;;;;;;5046382;28;20028;-69
2022/04/09 07:58:41;;;;;;;22.70;5.75;;;17.10;95.00;;;;;;5049846;28;20474;-68
2022/04/09 08:01:07;;;;;;;26.17;5.32;;;17.10;94.90;;;;;;5052305;28;20037;-69
2022/04/09 08:03:33;;;;;;;21.30;5.70;;;17.10;95.00;;;;;;5053410;28;20485;-69
2022/04/09 08:05:59;;;;;;;24.65;5.80;;;17.20;95.00;;;;;;5052203;28;20025;-68
2022/04/09 08:08:24;;;;;;;24.02;5.82;;;17.30;94.80;;;;;;5053768;28;20032;-69
2022/04/09 08:10:51;;;;;;;15.25;4.93;;;17.40;94.50;;;;;;5053582;28;20096;-70
2022/04/09 08:13:18;;;;;;;28.15;5.40;;;17.60;94.10;;;;;;5049418;28;20393;-69
2022/04/09 08:15:44;;;;;;;20.73;4.80;;;17.70;93.70;;;;;;5036055;28;20378;-68
2022/04/09 08:18:11;;;;;;;18.90;5.45;;;17.80;93.50;;;;;;5033233;28;20056;-69
2022/04/09 08:20:37;;;;;;;23.05;6.72;;;17.90;93.40;;;;;;5033529;28;20088;-68
2022/04/09 08:23:04;;;;;;;17.15;5.45;;;18.00;93.10;;;;;;5033243;28;20025;-68
2022/04/09 08:25:30;;;;;;;22.88;5.53;;;18.10;92.90;;;;;;5033399;28;20025;-69
2022/04/09 08:27:56;;;;;;;17.25;5.50;;;18.10;92.80;;;;;;5033588;28;20040;-68
2022/04/09 08:30:23;;;;;;;22.25;4.95;;;18.20;92.50;;;;;;5033338;28;20108;-69
2022/04/09 08:32:50;;;;;;;18.25;5.90;;;18.30;92.10;;;;;;5033214;28;20026;-70
2022/04/09 08:35:16;;;;;;;21.80;5.70;;;18.40;91.80;;;;;;5032683;28;20121;-70
2022/04/09 08:37:42;;;;;;;20.90;5.30;;;18.50;91.40;;;;;;5033029;28;20026;-68
2022/04/09 08:40:14;;;;;;;18.15;4.88;;;18.60;90.80;;;;;;5039552;28;20044;-69
2022/04/09 08:42:40;;;;;;;25.65;4.85;;;18.70;90.50;;;;;;5027815;28;20112;-68
2022/04/09 08:45:06;;;;;;;25.17;6.28;;;18.80;90.30;;;;;;5033129;28;20167;-69
2022/04/09 08:47:35;;;;;;;19.90;5.13;;;18.90;90.10;;;;;;5038583;28;20101;-69
2022/04/09 08:50:02;;;;;;;17.80;4.50;;;18.90;89.60;;;;;;5037169;28;20387;-69
2022/04/09 08:52:29;;;;;;;23.65;6.28;;;18.90;89.40;;;;;;5032828;28;20057;-68
2022/04/09 08:54:56;;;;;;;23.88;6.03;;;18.90;90.00;;;;;;5032920;28;20033;-69
2022/04/09 08:57:21;;;;;;;21.13;5.88;;;18.90;90.00;;;;;;5032876;28;20025;-68
2022/04/09 08:59:47;;;;;;;20.50;4.80;;;19.00;90.00;;;;;;5035618;28;20370;-69
2022/04/09 09:02:13;;;;;;;21.38;4.80;;;18.90;89.50;;;;;;5040058;28;20033;-69
2022/04/09 09:04:39;;;;;;;19.67;5.05;;;19.00;89.60;;;;;;5032746;28;20022;-68
2022/04/09 09:07:20;;;;;;;26.17;5.15;;;19.00;89.20;;;;;;5032913;28;20399;-67
2022/04/09 09:09:45;;;;;;;22.05;5.18;;;19.00;89.50;;;;;;5031584;28;20030;-70
2022/04/09 09:12:12;;;;;;;19.48;5.15;;;19.00;89.80;;;;;;5032882;28;20091;-68
2022/04/09 09:14:44;;;;;;;21.55;5.85;;;19.00;89.30;;;;;;5032484;28;20033;-67
2022/04/09 09:17:11;;;;;;;18.60;4.78;;;19.00;89.00;;;;;;5032497;28;20032;-68
2022/04/09 09:19:45;;;;;;;21.30;4.53;;;19.00;89.00;;;;;;5032541;28;20072;-67
2022/04/09 09:22:11;;;;;;;14.43;3.72;;;19.00;86.90;;;;;;5030995;28;20026;-69
2022/04/09 09:24:37;;;;;;;17.55;3.80;;;19.00;85.30;;;;;;5032328;28;20120;-69
2022/04/09 09:27:04;;;;;;;15.15;3.58;;;19.00;84.50;;;;;;5031044;28;20092;-67
2022/04/09 09:29:30;;;;;;;18.23;4.47;;;19.00;83.00;;;;;;5032168;28;20025;-68
2022/04/09 09:31:58;;;;;;;16.40;3.63;;;19.00;81.50;;;;;;5032583;28;20090;-68
2022/04/09 09:34:24;;;;;;;14.30;3.72;;;19.20;80.60;;;;;;5032134;28;20331;-69
2022/04/09 09:36:50;;;;;;;13.73;3.33;;;19.40;78.60;;;;;;5032267;28;20437;-70
2022/04/09 09:39:21;;;;;;;20.63;4.70;;;19.50;77.60;;;;;;5031176;28;20104;-69
2022/04/09 09:41:53;;;;;;;28.95;4.47;;;19.80;76.90;;;;;;5032345;28;20064;-70
2022/04/09 09:44:20;;;;;;;18.77;3.72;;;20.00;76.00;;;;;;5032432;28;20472;-69
2022/04/09 09:46:49;;;;;;;13.63;3.67;;;20.10;75.30;;;;;;5030913;28;20164;-69
2022/04/09 09:49:15;;;;;;;14.00;3.33;;;20.20;73.80;;;;;;5032779;28;20087;-68
2022/04/09 09:51:42;;;;;;;13.73;3.30;;;20.20;73.10;;;;;;5035306;28;20204;-70
2022/04/09 09:54:13;;;;;;;19.75;6.57;;;20.10;72.30;;;;;;5036214;28;20144;-69
2022/04/09 09:56:43;;;;;;;17.67;4.68;;;20.10;70.90;;;;;;5036205;28;20068;-69
2022/04/09 09:59:13;;;;;;;13.52;4.03;;;20.10;70.40;;;;;;5036284;28;20478;-69
2022/04/09 10:01:41;;;;;;;15.40;5.10;;;20.10;70.10;;;;;;5036205;28;20040;-68
2022/04/09 10:04:08;;;;;;;15.20;4.22;;;20.20;70.00;;;;;;5035818;28;20466;-69
2022/04/09 10:06:36;;;;;;;14.40;3.55;;;20.20;69.40;;;;;;5034492;28;20099;-70
2022/04/09 10:09:06;;;;;;;13.25;3.35;;;20.30;68.50;;;;;;5035982;28;20463;-69
2022/04/09 10:11:37;;;;;;;19.92;6.00;;;20.30;68.70;;;;;;5036258;28;20076;-69
2022/04/09 10:14:04;;;;;;;16.65;4.40;;;20.30;68.00;;;;;;5035792;28;20025;-70
2022/04/09 10:16:33;;;;;;;16.10;3.63;;;20.30;67.70;;;;;;5034266;28;20128;-70
2022/04/09 10:19:01;;;;;;;19.15;4.53;;;20.30;68.50;;;;;;5034429;28;20064;-70
2022/04/09 10:21:29;;;;;;;12.60;3.47;;;20.30;68.90;;;;;;5035820;28;20025;-68
2022/04/09 10:23:59;;;;;;;12.73;3.40;;;20.40;67.60;;;;;;5035712;28;20438;-69
2022/04/09 10:26:26;;;;;;;14.27;4.10;;;20.40;69.00;;;;;;5033776;28;20094;-69
2022/04/09 10:29:08;;;;;;;13.60;4.05;;;20.60;66.50;;;;;;5035458;28;20026;-69
2022/04/09 10:31:43;;;;;;;16.13;3.55;;;20.60;67.00;;;;;;5035489;28;20021;-70
2022/04/09 10:34:16;;;;;;;13.98;3.70;;;20.50;66.80;;;;;;5035186;28;20473;-69
2022/04/09 10:36:44;;;;;;;17.53;3.67;;;20.50;67.70;;;;;;5035145;28;20072;-69
2022/04/09 10:39:42;;;;;;;15.70;3.83;;;20.40;66.10;;;;;;5035543;28;20104;-69
2022/04/09 10:42:09;;;;;;;16.73;4.10;;;20.50;66.60;;;;;;5035532;28;20025;-69
2022/04/09 10:44:35;;;;;;;14.65;4.10;;;20.70;67.50;;;;;;5035571;28;20032;-69
2022/04/09 10:47:03;;;;;;;19.67;4.47;;;20.80;67.90;;;;;;5035005;28;20033;-69
2022/04/09 10:49:30;;;;;;;17.33;4.38;;;20.70;66.90;;;;;;5035509;28;20474;-69
2022/04/09 10:52:03;;;;;;;18.05;4.10;;;20.70;67.20;;;;;;5035094;28;20037;-69
2022/04/09 10:54:29;;;;;;;17.05;3.88;;;20.70;66.00;;;;;;5035120;28;20083;-68
2022/04/09 10:57:05;;;;;;;26.23;4.72;;;20.70;67.80;;;;;;5035065;28;20029;-69
2022/04/09 10:59:33;;;;;;;17.92;4.32;;;20.70;67.80;;;;;;5034942;28;20072;-70
2022/04/09 11:01:59;;;;;;;18.83;4.35;;;20.80;66.10;;;;;;5033536;28;20360;-68
2022/04/09 11:04:36;;;;;;;12.88;4.65;;;20.80;66.30;;;;;;5034618;28;20033;-68
2022/04/09 11:07:14;;;;;;;20.95;5.95;;;20.90;64.90;;;;;;5033556;28;20104;-68
2022/04/09 11:09:40;;;;;;;18.50;4.90;;;20.80;64.40;;;;;;5034835;28;20033;-69
2022/04/09 11:12:06;;;;;;;19.58;4.70;;;20.80;66.00;;;;;;5034827;28;20029;-69
2022/04/09 11:14:45;;;;;;;25.08;5.20;;;20.70;65.70;;;;;;5034611;28;20033;-68
2022/04/09 11:17:31;;;;;;;16.15;4.43;;;20.70;64.90;;;;;;5034764;28;20545;-69
2022/04/09 11:20:01;;;;;;;19.33;4.75;;;20.70;67.00;;;;;;5035163;28;20037;-69
2022/04/09 11:22:38;;;;;;;19.08;4.63;;;20.70;66.40;;;;;;5034643;28;20059;-69
2022/04/09 11:25:06;;;;;;;17.33;4.55;;;20.70;64.60;;;;;;5034768;28;20033;-69
2022/04/09 11:27:32;;;;;;;24.50;4.75;;;20.60;66.10;;;;;;5035177;28;20017;-68
2022/04/09 11:29:58;;;;;;;20.55;4.40;;;20.60;66.20;;;;;;5033811;28;20121;-67
2022/04/09 11:32:25;;;;;;;20.27;5.95;;;20.70;65.30;;;;;;5034857;28;20113;-69
2022/04/09 11:35:00;;;;;;;26.05;5.20;;;20.80;65.00;;;;;;5034664;28;20033;-69
2022/04/09 11:37:29;;;;;;;23.27;4.50;;;20.90;63.10;;;;;;5034708;28;20343;-70
2022/04/09 11:39:57;;;;;;;17.85;4.20;;;21.00;64.30;;;;;;5033389;28;20037;-72
2022/04/09 11:42:23;;;;;;;20.75;4.53;;;20.80;64.10;;;;;;5034450;28;20332;-69
2022/04/09 11:44:49;;;;;;;15.60;4.40;;;20.90;64.30;;;;;;5039322;28;20029;-68
2022/04/09 11:47:23;;;;;;;18.00;3.70;;;20.80;64.10;;;;;;5042906;28;20029;-70
2022/04/09 11:49:49;;;;;;;21.02;4.13;;;20.70;61.70;;;;;;5044308;28;20017;-70
2022/04/09 11:52:29;;;;;;;20.42;5.10;;;20.70;65.10;;;;;;5034532;28;20514;-71
2022/04/09 11:54:55;;;;;;;20.00;4.55;;;20.70;66.40;;;;;;5033004;28;20379;-73
2022/04/09 11:57:22;;;;;;;24.30;5.22;;;20.80;65.10;;;;;;5034129;28;20036;-69
2022/04/09 11:59:55;;;;;;;20.83;4.28;;;20.80;63.80;;;;;;5033019;28;20056;-70
2022/04/09 12:02:27;;;;;;;24.42;5.45;;;20.90;63.70;;;;;;5034568;28;20068;-68
2022/04/09 12:04:57;;;;;;;28.75;6.15;;;20.90;63.10;;;;;;5034409;28;20108;-70
2022/04/09 12:07:26;;;;;;;24.98;5.32;;;20.90;63.10;;;;;;5034187;28;20131;-68
2022/04/09 12:09:54;;;;;;;27.42;5.60;;;20.90;63.20;;;;;;5045901;28;20049;-70
2022/04/09 12:12:20;;;;;;;29.83;5.60;;;21.00;63.00;;;;;;5053805;28;20469;-71
2022/04/09 12:14:57;;;;;;;21.35;4.97;;;21.00;62.90;;;;;;5051886;28;20055;-69
2022/04/09 12:17:31;;;;;;;21.35;5.00;;;21.00;60.90;;;;;;5053572;28;20029;-70
2022/04/09 12:19:57;;;;;;;23.08;4.80;;;21.00;62.40;;;;;;5053667;28;20041;-70
2022/04/09 12:22:24;;;;;;;31.08;5.43;;;20.90;62.10;;;;;;5053575;28;20385;-70
2022/04/09 12:24:58;;;;;;;28.30;6.38;;;20.90;62.30;;;;;;5053312;28;20033;-71
2022/04/09 12:27:46;;;;;;;21.30;5.13;;;20.70;63.10;;;;;;5051919;28;20053;-69
2022/04/09 12:30:13;;;;;;;25.50;5.45;;;20.70;61.00;;;;;;5053342;28;20017;-70
2022/04/09 12:32:41;;;;;;;28.67;6.07;;;20.80;62.50;;;;;;5053264;28;20404;-68
2022/04/09 12:35:11;;;;;;;23.17;4.80;;;20.80;62.50;;;;;;5051245;28;20104;-70